Coronis — V7FH8 — position and weather

sailwx.info

Track history (hours):
 
Tides and Currents Weather Stations Pressure Air Temp Water Temp Dewpoint Dewpoint Depression Visibility Wind Speed Wind Dir Waves Ship Positions

Coronis

Last reported at 2018-Jan-20 00:58 UTC. Time now 2018-Jan-20 01:30 UTC.
Position N 46°16' E 031°05'.

Length 225 m; draft 6.6 m.

Type: Cargo ship. MMSI: 538005598.

Date/timePositionNaut miles runAvg speedWind from/ knotsBaromVisibWave heightAir tempDewpointWater temp
2018-Jan-20 00:58N 46°16' E 031°05'0 0.0
2018-Jan-20 00:22N 46°16' E 031°05'0 0.0
2018-Jan-19 23:58N 46°16' E 031°05'0 0.0
2018-Jan-19 23:28N 46°16' E 031°05'0 0.0
2018-Jan-19 22:58N 46°16' E 031°05'0 0.0
2018-Jan-19 22:28N 46°16' E 031°05'0 0.0
2018-Jan-19 21:58N 46°16' E 031°05'0 0.0
2018-Jan-19 21:28N 46°16' E 031°05'0 0.0
2018-Jan-19 20:58N 46°16' E 031°05'0 0.0
2018-Jan-19 20:25N 46°16' E 031°05'0 0.0
2018-Jan-19 19:58N 46°16' E 031°05'0 0.0
2018-Jan-19 19:28N 46°16' E 031°05'0 0.0
2018-Jan-19 18:58N 46°16' E 031°05'0 0.0
2018-Jan-19 18:28N 46°16' E 031°05'0 0.0
2018-Jan-19 17:58N 46°16' E 031°05'0 0.1
2018-Jan-19 17:28N 46°16' E 031°05'0 0.0
2018-Jan-19 16:58N 46°16' E 031°05'0 0.0
2018-Jan-19 16:01N 46°16' E 031°05'0 0.1
2018-Jan-19 15:58N 46°16' E 031°05'0 0.0
2018-Jan-19 15:25N 46°16' E 031°05'0 0.0
2018-Jan-19 14:52N 46°16' E 031°05'0 0.0
2018-Jan-19 14:22N 46°16' E 031°05'0 0.1
2018-Jan-19 14:00N 46°16' E 031°05'0 0.5
2018-Jan-19 13:30N 46°16' E 031°05'3 5.2
2018-Jan-19 13:00N 46°17' E 031°01'3 5.2
2018-Jan-19 12:30N 46°18' E 030°58'5 9.0
2018-Jan-19 12:00N 46°22' E 030°55'612.3
2018-Jan-19 11:30N 46°28' E 030°55'5 9.4
2018-Jan-19 11:00N 46°33' E 030°58'4 7.7
2018-Jan-19 10:30N 46°36' E 031°01'1 2.5
2018-Jan-19 10:00N 46°37' E 031°02'0 0.0
2018-Jan-19 09:25N 46°37' E 031°02'0 0.0
2018-Jan-19 08:37N 46°37' E 031°02'0 0.0
2018-Jan-19 08:28N 46°37' E 031°02'0 0.0
2018-Jan-19 07:55N 46°37' E 031°02'0 0.0
2018-Jan-19 07:25N 46°37' E 031°02'0 0.0
2018-Jan-19 06:58N 46°37' E 031°02'0 0.0
2018-Jan-19 06:13N 46°37' E 031°02'0 0.0
2018-Jan-19 05:58N 46°37' E 031°02'0 0.0
2018-Jan-19 05:25N 46°37' E 031°02'0 0.0
2018-Jan-19 04:58N 46°37' E 031°02'0 0.0
2018-Jan-19 04:28N 46°37' E 031°02'0 0.0
2018-Jan-19 03:58N 46°37' E 031°02'0 0.0
2018-Jan-19 03:28N 46°37' E 031°02'0 0.0
2018-Jan-19 02:52N 46°37' E 031°02'0 0.0
2018-Jan-19 02:28N 46°37' E 031°02'0 0.0
2018-Jan-19 01:58N 46°37' E 031°02'0 0.0
2018-Jan-19 01:28N 46°37' E 031°02'0 0.0
2018-Jan-19 00:58N 46°37' E 031°02'0 0.1
2018-Jan-19 00:10N 46°37' E 031°02'0 0.5
2018-Jan-18 23:58N 46°37' E 031°02'0 0.0
2018-Jan-18 22:22N 46°37' E 031°02'0 0.0
2018-Jan-18 21:58N 46°37' E 031°02'0 0.0
2018-Jan-18 21:16N 46°37' E 031°02'0 0.0
2018-Jan-18 20:58N 46°37' E 031°02'0 0.0
2018-Jan-18 20:22N 46°37' E 031°02'0 0.0
2018-Jan-18 19:58N 46°37' E 031°02'0 0.0
2018-Jan-18 19:22N 46°37' E 031°02'0 0.0
2018-Jan-18 18:52N 46°37' E 031°02'0 0.0
2018-Jan-18 18:28N 46°37' E 031°02'0 0.0
2018-Jan-18 17:55N 46°37' E 031°02'  
2018-Jan-10 14:16N 37°59' E 024°40'312.7
2018-Jan-10 14:00N 37°56' E 024°37'612.4
2018-Jan-10 13:30N 37°52' E 024°32'612.7
2018-Jan-10 13:00N 37°48' E 024°25'612.8
2018-Jan-10 12:30N 37°44' E 024°19'612.7
2018-Jan-10 12:00N 37°40' E 024°13'4 8.6
2018-Jan-10 11:30N 37°37' E 024°09'3 5.5
2018-Jan-10 11:00N 37°35' E 024°07'712.2
2018-Jan-10 10:26N 37°28' E 024°04'812.9
2018-Jan-10 09:51N 37°21' E 024°00'512.7
2018-Jan-10 09:27N 37°16' E 023°58'612.7
2018-Jan-10 08:59N 37°11' E 023°55'612.7
2018-Jan-10 08:30N 37°05' E 023°52'612.8
2018-Jan-10 08:00N 36°60' E 023°49'713.1
2018-Jan-10 07:28N 36°53' E 023°46'712.9
2018-Jan-10 06:58N 36°47' E 023°42'1012.5
2018-Jan-10 06:09N 36°39' E 023°34'212.6
2018-Jan-10 05:59N 36°38' E 023°32'712.7
2018-Jan-10 05:25N 36°33' E 023°26'  
Track history (hours):
 
Tides and Currents Weather Stations Pressure Air Temp Water Temp Dewpoint Dewpoint Depression Visibility Wind Speed Wind Dir Waves Ship Positions

Coronis

Last reported at 2018-Jan-20 00:58 UTC. Time now 2018-Jan-20 01:30 UTC.
Position N 46°16' E 031°05'.

Length 225 m; draft 6.6 m.

Type: Cargo ship. MMSI: 538005598.

Date/timePositionNaut miles runAvg speedWind from/ knotsBaromVisibWave heightAir tempDewpointWater temp
2018-Jan-20 00:58N 46°16' E 031°05'0 0.0
2018-Jan-20 00:22N 46°16' E 031°05'0 0.0
2018-Jan-19 23:58N 46°16' E 031°05'0 0.0
2018-Jan-19 23:28N 46°16' E 031°05'0 0.0
2018-Jan-19 22:58N 46°16' E 031°05'0 0.0
2018-Jan-19 22:28N 46°16' E 031°05'0 0.0
2018-Jan-19 21:58N 46°16' E 031°05'0 0.0
2018-Jan-19 21:28N 46°16' E 031°05'0 0.0
2018-Jan-19 20:58N 46°16' E 031°05'0 0.0
2018-Jan-19 20:25N 46°16' E 031°05'0 0.0
2018-Jan-19 19:58N 46°16' E 031°05'0 0.0
2018-Jan-19 19:28N 46°16' E 031°05'0 0.0
2018-Jan-19 18:58N 46°16' E 031°05'0 0.0
2018-Jan-19 18:28N 46°16' E 031°05'0 0.0
2018-Jan-19 17:58N 46°16' E 031°05'0 0.1
2018-Jan-19 17:28N 46°16' E 031°05'0 0.0
2018-Jan-19 16:58N 46°16' E 031°05'0 0.0
2018-Jan-19 16:01N 46°16' E 031°05'0 0.1
2018-Jan-19 15:58N 46°16' E 031°05'0 0.0
2018-Jan-19 15:25N 46°16' E 031°05'0 0.0
2018-Jan-19 14:52N 46°16' E 031°05'0 0.0
2018-Jan-19 14:22N 46°16' E 031°05'0 0.1
2018-Jan-19 14:00N 46°16' E 031°05'0 0.5
2018-Jan-19 13:30N 46°16' E 031°05'3 5.2
2018-Jan-19 13:00N 46°17' E 031°01'3 5.2
2018-Jan-19 12:30N 46°18' E 030°58'5 9.0
2018-Jan-19 12:00N 46°22' E 030°55'612.3
2018-Jan-19 11:30N 46°28' E 030°55'5 9.4
2018-Jan-19 11:00N 46°33' E 030°58'4 7.7
2018-Jan-19 10:30N 46°36' E 031°01'1 2.5
2018-Jan-19 10:00N 46°37' E 031°02'0 0.0
2018-Jan-19 09:25N 46°37' E 031°02'0 0.0
2018-Jan-19 08:37N 46°37' E 031°02'0 0.0
2018-Jan-19 08:28N 46°37' E 031°02'0 0.0
2018-Jan-19 07:55N 46°37' E 031°02'0 0.0
2018-Jan-19 07:25N 46°37' E 031°02'0 0.0
2018-Jan-19 06:58N 46°37' E 031°02'0 0.0
2018-Jan-19 06:13N 46°37' E 031°02'0 0.0
2018-Jan-19 05:58N 46°37' E 031°02'0 0.0
2018-Jan-19 05:25N 46°37' E 031°02'0 0.0
2018-Jan-19 04:58N 46°37' E 031°02'0 0.0
2018-Jan-19 04:28N 46°37' E 031°02'0 0.0
2018-Jan-19 03:58N 46°37' E 031°02'0 0.0
2018-Jan-19 03:28N 46°37' E 031°02'0 0.0
2018-Jan-19 02:52N 46°37' E 031°02'0 0.0
2018-Jan-19 02:28N 46°37' E 031°02'0 0.0
2018-Jan-19 01:58N 46°37' E 031°02'0 0.0
2018-Jan-19 01:28N 46°37' E 031°02'0 0.0
2018-Jan-19 00:58N 46°37' E 031°02'0 0.1
2018-Jan-19 00:10N 46°37' E 031°02'0 0.5
2018-Jan-18 23:58N 46°37' E 031°02'0 0.0
2018-Jan-18 22:22N 46°37' E 031°02'0 0.0
2018-Jan-18 21:58N 46°37' E 031°02'0 0.0
2018-Jan-18 21:16N 46°37' E 031°02'0 0.0
2018-Jan-18 20:58N 46°37' E 031°02'0 0.0
2018-Jan-18 20:22N 46°37' E 031°02'0 0.0
2018-Jan-18 19:58N 46°37' E 031°02'0 0.0
2018-Jan-18 19:22N 46°37' E 031°02'0 0.0
2018-Jan-18 18:52N 46°37' E 031°02'0 0.0
2018-Jan-18 18:28N 46°37' E 031°02'0 0.0
2018-Jan-18 17:55N 46°37' E 031°02'  
2018-Jan-10 14:16N 37°59' E 024°40'312.7
2018-Jan-10 14:00N 37°56' E 024°37'612.4
2018-Jan-10 13:30N 37°52' E 024°32'612.7
2018-Jan-10 13:00N 37°48' E 024°25'612.8
2018-Jan-10 12:30N 37°44' E 024°19'612.7
2018-Jan-10 12:00N 37°40' E 024°13'4 8.6
2018-Jan-10 11:30N 37°37' E 024°09'3 5.5
2018-Jan-10 11:00N 37°35' E 024°07'712.2
2018-Jan-10 10:26N 37°28' E 024°04'812.9
2018-Jan-10 09:51N 37°21' E 024°00'512.7
2018-Jan-10 09:27N 37°16' E 023°58'612.7
2018-Jan-10 08:59N 37°11' E 023°55'612.7
2018-Jan-10 08:30N 37°05' E 023°52'612.8
2018-Jan-10 08:00N 36°60' E 023°49'713.1
2018-Jan-10 07:28N 36°53' E 023°46'712.9
2018-Jan-10 06:58N 36°47' E 023°42'1012.5
2018-Jan-10 06:09N 36°39' E 023°34'212.6
2018-Jan-10 05:59N 36°38' E 023°32'712.7
2018-Jan-10 05:25N 36°33' E 023°26'  

Dump ship's entire track history